createdAt,value
2022-11-17T00:01:21.476Z,2.20
2022-11-17T00:04:08.519Z,2.58
2022-11-17T00:06:55.873Z,2.95
2022-11-17T00:09:42.945Z,2.40
2022-11-17T00:12:47.779Z,2.20
2022-11-17T00:18:40.310Z,2.38
2022-11-17T00:21:28.909Z,2.80
2022-11-17T00:24:17.012Z,2.40
2022-11-17T00:27:04.071Z,2.55
2022-11-17T00:29:51.300Z,2.10
2022-11-17T00:33:04.314Z,2.10
2022-11-17T00:35:54.231Z,2.90
2022-11-17T00:38:41.312Z,2.45
2022-11-17T00:41:28.834Z,2.05
2022-11-17T00:44:16.133Z,2.50
2022-11-17T00:47:03.376Z,2.00
2022-11-17T00:49:50.742Z,2.35
2022-11-17T00:52:39.317Z,2.45
2022-11-17T00:55:26.751Z,2.83
2022-11-17T00:58:14.129Z,2.53
2022-11-17T01:01:01.528Z,2.83
2022-11-17T01:03:48.530Z,2.47
2022-11-17T01:06:37.313Z,3.00
2022-11-17T01:09:25.734Z,2.88
2022-11-17T01:12:12.702Z,2.50
2022-11-17T01:15:02.030Z,3.08
2022-11-17T01:17:51.688Z,2.72
2022-11-17T01:20:41.534Z,2.40
2022-11-17T01:23:31.214Z,2.33
2022-11-17T01:26:22.107Z,2.72
2022-11-17T01:29:11.309Z,2.70
2022-11-17T01:32:01.083Z,2.70
2022-11-17T01:34:51.346Z,2.58
2022-11-17T01:37:40.665Z,3.35
2022-11-17T01:40:30.165Z,2.55
2022-11-17T01:43:34.626Z,2.47
2022-11-17T01:49:14.861Z,2.95
2022-11-17T01:52:06.058Z,2.20
2022-11-17T01:54:56.904Z,2.20
2022-11-17T01:57:48.937Z,2.72
2022-11-17T02:00:38.459Z,2.63
2022-11-17T02:03:28.947Z,2.10
2022-11-17T02:06:23.457Z,2.17
2022-11-17T02:09:10.987Z,2.33
2022-11-17T02:11:59.988Z,2.10
2022-11-17T02:14:47.459Z,1.98
2022-11-17T02:17:36.959Z,2.15
2022-11-17T02:20:28.506Z,1.95
2022-11-17T02:23:45.868Z,2.47
2022-11-17T02:26:42.101Z,2.17
2022-11-17T02:29:35.269Z,2.42
2022-11-17T02:32:26.052Z,2.15
2022-11-17T02:35:15.669Z,2.25
2022-11-17T02:38:06.815Z,2.33
2022-11-17T02:40:55.839Z,2.08
2022-11-17T02:44:02.726Z,2.22
2022-11-17T02:46:53.039Z,2.28
2022-11-17T02:49:41.570Z,2.50
2022-11-17T02:52:30.582Z,2.50
2022-11-17T02:55:17.995Z,2.70
2022-11-17T02:58:05.269Z,2.53
2022-11-17T03:01:05.471Z,1.92
2022-11-17T03:03:59.344Z,2.60
2022-11-17T03:06:49.495Z,2.50
2022-11-17T03:09:43.846Z,2.40
2022-11-17T03:15:23.822Z,2.20
2022-11-17T03:18:13.136Z,2.70
2022-11-17T03:21:06.812Z,2.55
2022-11-17T03:23:56.633Z,2.13
2022-11-17T03:26:46.216Z,2.20
2022-11-17T03:29:34.074Z,2.55
2022-11-17T03:32:22.975Z,2.35
2022-11-17T03:35:11.305Z,2.45
2022-11-17T03:38:01.548Z,2.35
2022-11-17T03:40:50.348Z,2.40
2022-11-17T03:43:38.657Z,2.13
2022-11-17T03:46:27.980Z,2.28
2022-11-17T03:49:19.830Z,2.35
2022-11-17T03:52:07.130Z,2.35
2022-11-17T03:54:55.591Z,2.42
2022-11-17T03:57:45.790Z,2.53
2022-11-17T04:00:34.120Z,2.40
2022-11-17T04:03:22.561Z,2.47
2022-11-17T04:06:09.858Z,3.03
2022-11-17T04:08:57.098Z,2.78
2022-11-17T04:12:03.480Z,2.33
2022-11-17T04:15:07.705Z,2.75
2022-11-17T04:17:54.942Z,2.45
2022-11-17T04:20:42.351Z,2.50
2022-11-17T04:23:29.715Z,2.22
2022-11-17T04:26:34.249Z,2.63
2022-11-17T04:32:09.544Z,2.58
2022-11-17T04:34:56.784Z,2.63
2022-11-17T04:37:44.075Z,2.47
2022-11-17T04:40:51.228Z,2.97
2022-11-17T04:43:37.780Z,2.35
2022-11-17T04:46:26.064Z,2.85
2022-11-17T04:49:15.002Z,3.25
2022-11-17T04:52:02.491Z,2.65
2022-11-17T04:54:49.820Z,3.00
2022-11-17T04:57:37.148Z,2.95
2022-11-17T05:00:24.526Z,2.90
2022-11-17T05:03:11.695Z,3.45
2022-11-17T05:06:00.303Z,3.10
2022-11-17T05:08:48.085Z,3.17
2022-11-17T05:11:52.599Z,2.70
2022-11-17T05:14:39.583Z,2.75
2022-11-17T05:17:25.752Z,2.85
2022-11-17T05:20:12.882Z,2.90
2022-11-17T05:23:18.885Z,3.72
2022-11-17T05:26:06.215Z,2.92
2022-11-17T05:28:53.811Z,3.00
2022-11-17T05:31:41.144Z,2.85
2022-11-17T05:34:28.643Z,2.67
2022-11-17T05:37:15.721Z,2.25
2022-11-17T05:40:04.516Z,3.10
2022-11-17T05:42:55.885Z,3.05
2022-11-17T05:45:46.536Z,2.55
2022-11-17T05:48:34.774Z,2.90
2022-11-17T05:51:22.814Z,2.70
2022-11-17T05:54:10.123Z,2.75
2022-11-17T05:57:00.602Z,3.38
2022-11-17T05:59:49.882Z,3.67
2022-11-17T06:02:42.012Z,3.25
2022-11-17T06:05:29.097Z,2.58
2022-11-17T06:08:16.491Z,3.10
2022-11-17T06:11:03.725Z,3.08
2022-11-17T06:13:52.555Z,2.50
2022-11-17T06:16:45.233Z,3.22
2022-11-17T06:19:35.194Z,2.95
2022-11-17T06:22:22.332Z,2.78
2022-11-17T06:25:10.429Z,3.35
2022-11-17T06:27:58.054Z,3.10
2022-11-17T06:30:46.769Z,2.83
2022-11-17T06:33:35.335Z,3.80
2022-11-17T06:36:22.973Z,3.10
2022-11-17T06:39:10.412Z,2.60
2022-11-17T06:41:57.734Z,2.60
2022-11-17T06:44:44.919Z,2.90
2022-11-17T06:47:33.621Z,2.50
2022-11-17T06:50:20.797Z,2.40
2022-11-17T06:53:09.176Z,2.10
2022-11-17T06:56:04.391Z,2.10
2022-11-17T06:58:51.792Z,2.38
2022-11-17T07:01:39.047Z,2.15
2022-11-17T07:04:27.724Z,2.15
2022-11-17T07:07:15.363Z,2.50
2022-11-17T07:10:02.718Z,2.50
2022-11-17T07:12:50.074Z,1.77
2022-11-17T07:15:37.403Z,1.65
2022-11-17T07:18:24.724Z,1.67
2022-11-17T07:21:14.310Z,2.00
2022-11-17T07:24:01.362Z,1.98
2022-11-17T07:26:48.738Z,1.85
2022-11-17T07:29:36.080Z,1.88
2022-11-17T07:32:23.427Z,1.55
2022-11-17T07:35:10.871Z,1.75
2022-11-17T07:38:01.468Z,1.95
2022-11-17T07:40:48.585Z,1.50
2022-11-17T07:43:36.331Z,1.95
2022-11-17T07:46:23.343Z,1.42
2022-11-17T07:49:10.643Z,1.80
2022-11-17T07:51:57.905Z,1.70
2022-11-17T07:54:46.382Z,1.30
2022-11-17T07:57:33.960Z,1.33
2022-11-17T08:00:21.397Z,1.23
2022-11-17T08:03:10.063Z,1.35
2022-11-17T08:05:57.763Z,1.38
2022-11-17T08:08:44.864Z,1.30
2022-11-17T08:11:34.289Z,0.93
2022-11-17T08:14:21.266Z,1.00
2022-11-17T08:17:08.599Z,0.80
2022-11-17T08:19:58.116Z,1.15
2022-11-17T08:22:46.378Z,0.90
2022-11-17T08:25:33.748Z,0.95
2022-11-17T08:28:22.559Z,1.20
2022-11-17T08:31:09.668Z,0.75
2022-11-17T08:33:57.192Z,0.80
2022-11-17T08:36:44.506Z,1.02
2022-11-17T08:39:31.830Z,1.27
2022-11-17T08:42:19.273Z,1.00
2022-11-17T08:45:09.008Z,0.98
2022-11-17T08:47:57.151Z,1.00
2022-11-17T08:50:44.187Z,0.80
2022-11-17T08:53:31.564Z,1.27
2022-11-17T08:56:19.837Z,0.88
2022-11-17T08:59:07.236Z,1.00
2022-11-17T09:01:55.763Z,0.98
2022-11-17T09:04:42.864Z,1.98
2022-11-17T09:07:34.647Z,0.90
2022-11-17T09:10:22.344Z,0.80
2022-11-17T09:13:09.698Z,1.08
2022-11-17T09:16:01.138Z,1.20
2022-11-17T09:18:49.836Z,1.10
2022-11-17T09:21:37.150Z,0.90
2022-11-17T09:24:26.644Z,0.93
2022-11-17T09:27:14.051Z,0.90
2022-11-17T09:30:01.443Z,1.20
2022-11-17T09:32:48.709Z,1.13
2022-11-17T09:35:37.480Z,1.05
2022-11-17T09:38:24.514Z,1.33
2022-11-17T09:41:19.311Z,1.48
2022-11-17T09:44:09.740Z,1.30
2022-11-17T09:46:59.880Z,1.40
2022-11-17T09:49:56.796Z,0.77
2022-11-17T09:52:52.331Z,1.05
2022-11-17T09:55:40.880Z,1.13
2022-11-17T09:58:32.849Z,0.90
2022-11-17T10:01:21.518Z,1.33
2022-11-17T10:04:11.924Z,0.90
2022-11-17T10:06:59.711Z,1.08
2022-11-17T10:09:49.586Z,1.10
2022-11-17T10:12:41.211Z,0.80
2022-11-17T10:15:30.202Z,1.02
2022-11-17T10:18:18.079Z,0.98
2022-11-17T10:21:06.859Z,0.90
2022-11-17T10:23:57.335Z,1.25
2022-11-17T10:26:49.080Z,1.13
2022-11-17T10:29:36.441Z,0.90
2022-11-17T10:32:23.937Z,1.05
2022-11-17T10:35:15.285Z,1.15
2022-11-17T10:38:03.406Z,1.10
2022-11-17T10:40:51.581Z,0.90
2022-11-17T10:43:42.544Z,1.25
2022-11-17T10:46:36.699Z,1.23
2022-11-17T10:49:29.381Z,1.13
2022-11-17T10:52:17.425Z,1.23
2022-11-17T10:55:17.639Z,1.27
2022-11-17T10:58:10.231Z,1.73
2022-11-17T11:00:59.741Z,1.40
2022-11-17T11:03:50.536Z,0.88
2022-11-17T11:06:37.594Z,0.93
2022-11-17T11:09:25.014Z,1.10
2022-11-17T11:12:15.948Z,1.13
2022-11-17T11:15:03.662Z,0.70
2022-11-17T11:17:52.292Z,1.10
2022-11-17T11:20:42.981Z,0.90
2022-11-17T11:23:38.167Z,1.05
2022-11-17T11:26:33.062Z,1.00
2022-11-17T11:29:24.998Z,0.90
2022-11-17T11:32:18.419Z,0.82
2022-11-17T11:35:24.056Z,0.90
2022-11-17T11:38:22.118Z,0.57
2022-11-17T11:41:14.818Z,1.00
2022-11-17T11:44:08.622Z,0.98
2022-11-17T11:46:58.074Z,0.90
2022-11-17T11:49:49.112Z,1.10
2022-11-17T11:52:38.051Z,0.90
2022-11-17T11:55:29.098Z,1.88
2022-11-17T11:58:18.792Z,1.20
2022-11-17T12:01:07.199Z,0.77
2022-11-17T12:03:58.419Z,1.23
2022-11-17T12:06:53.928Z,1.30
2022-11-17T12:09:46.379Z,0.90
2022-11-17T12:12:36.698Z,0.93
2022-11-17T12:15:34.532Z,1.40
2022-11-17T12:18:32.027Z,0.90
2022-11-17T12:21:22.908Z,1.17
2022-11-17T12:24:14.207Z,1.00
2022-11-17T12:27:16.756Z,1.00
2022-11-17T12:30:06.442Z,0.95
2022-11-17T12:32:54.405Z,1.10
2022-11-17T12:35:41.705Z,0.80
2022-11-17T12:38:42.314Z,0.90
2022-11-17T12:41:48.098Z,1.17
2022-11-17T12:44:45.223Z,1.08
2022-11-17T12:47:34.678Z,0.82
2022-11-17T12:50:33.457Z,0.98
2022-11-17T12:53:27.295Z,1.00
2022-11-17T12:56:24.633Z,1.10
2022-11-17T12:59:19.006Z,1.05
2022-11-17T13:02:12.949Z,0.80
2022-11-17T13:05:03.825Z,0.93
2022-11-17T13:07:51.274Z,0.82
2022-11-17T13:10:38.504Z,0.80
2022-11-17T13:13:26.636Z,0.80
2022-11-17T13:16:17.991Z,1.00
2022-11-17T13:19:05.640Z,0.80
2022-11-17T13:22:01.059Z,1.10
2022-11-17T13:24:49.112Z,1.05
2022-11-17T13:27:36.607Z,0.90
2022-11-17T13:30:24.733Z,1.10
2022-11-17T13:33:21.271Z,0.80
2022-11-17T13:36:10.195Z,1.00
2022-11-17T13:39:00.778Z,1.05
2022-11-17T13:41:48.650Z,1.33
2022-11-17T13:44:36.035Z,1.20
2022-11-17T13:47:28.006Z,1.10
2022-11-17T13:50:35.147Z,1.13
2022-11-17T13:53:24.940Z,1.00
2022-11-17T13:56:23.844Z,0.80
2022-11-17T13:59:20.603Z,0.90
2022-11-17T14:02:25.963Z,1.52
2022-11-17T14:05:24.235Z,1.20
2022-11-17T14:08:12.777Z,1.17
2022-11-17T14:11:07.817Z,0.88
2022-11-17T14:14:01.081Z,0.98
2022-11-17T14:16:48.257Z,1.00
2022-11-17T14:19:35.407Z,0.80
2022-11-17T14:22:30.936Z,1.02
2022-11-17T14:25:19.093Z,1.10
2022-11-17T14:28:06.549Z,0.98
2022-11-17T14:30:56.030Z,1.27
2022-11-17T14:33:43.080Z,1.00
2022-11-17T14:36:30.569Z,1.15
2022-11-17T14:39:18.694Z,0.90
2022-11-17T14:42:06.229Z,1.05
2022-11-17T14:44:53.556Z,1.23
2022-11-17T14:47:42.503Z,1.15
2022-11-17T14:50:30.071Z,1.17
2022-11-17T14:53:17.257Z,1.08
2022-11-17T14:56:07.638Z,0.95
2022-11-17T14:58:55.951Z,1.13
2022-11-17T15:01:43.639Z,1.10
2022-11-17T15:07:39.656Z,1.10
2022-11-17T15:10:26.855Z,0.98
2022-11-17T15:13:14.214Z,1.00
2022-11-17T15:16:02.362Z,1.20
2022-11-17T15:18:49.707Z,1.23
2022-11-17T15:21:38.146Z,1.20
2022-11-17T15:24:25.428Z,1.10
2022-11-17T15:27:12.968Z,1.00
2022-11-17T15:30:00.160Z,1.08
2022-11-17T15:32:47.519Z,1.33
2022-11-17T15:35:34.967Z,0.90
2022-11-17T15:38:23.671Z,1.15
2022-11-17T15:41:12.055Z,1.55
2022-11-17T15:43:59.739Z,1.20
2022-11-17T15:46:47.810Z,1.65
2022-11-17T15:49:35.226Z,1.00
2022-11-17T15:52:41.709Z,1.45
2022-11-17T15:55:31.178Z,1.30
2022-11-17T15:58:18.533Z,1.20
2022-11-17T16:01:10.370Z,1.05
2022-11-17T16:03:58.621Z,1.60
2022-11-17T16:06:46.616Z,1.40
2022-11-17T16:09:34.550Z,1.13
2022-11-17T16:12:23.042Z,1.45
2022-11-17T16:15:10.675Z,1.50
2022-11-17T16:17:57.986Z,1.45
2022-11-17T16:20:45.299Z,1.25
2022-11-17T16:23:32.621Z,1.63
2022-11-17T16:26:20.431Z,1.02
2022-11-17T16:29:09.354Z,1.30
2022-11-17T16:31:56.614Z,1.27
2022-11-17T16:34:48.482Z,1.52
2022-11-17T16:37:35.820Z,1.40
2022-11-17T16:40:23.691Z,1.00
2022-11-17T16:43:11.642Z,2.00
2022-11-17T16:46:00.053Z,1.45
2022-11-17T16:48:48.233Z,1.30
2022-11-17T16:51:35.431Z,1.42
2022-11-17T16:54:22.943Z,1.38
2022-11-17T16:57:10.015Z,1.25
2022-11-17T16:59:57.328Z,1.00
2022-11-17T17:02:49.701Z,1.00
2022-11-17T17:05:40.421Z,1.40
2022-11-17T17:08:27.816Z,1.40
2022-11-17T17:11:15.574Z,1.50
2022-11-17T17:14:04.679Z,1.83
2022-11-17T17:16:51.978Z,1.40
2022-11-17T17:19:40.627Z,1.27
2022-11-17T17:22:27.790Z,1.35
2022-11-17T17:25:15.754Z,1.50
2022-11-17T17:28:03.335Z,1.20
2022-11-17T17:30:55.347Z,1.33
2022-11-17T17:33:42.553Z,1.27
2022-11-17T17:36:33.784Z,1.30
2022-11-17T17:39:20.837Z,1.63
2022-11-17T17:42:08.209Z,1.45
2022-11-17T17:44:58.902Z,2.00
2022-11-17T17:47:46.228Z,3.22
2022-11-17T17:50:33.434Z,2.30
2022-11-17T17:53:22.176Z,1.73
2022-11-17T17:56:10.914Z,2.00
2022-11-17T17:58:58.199Z,1.92
2022-11-17T18:01:46.257Z,2.15
2022-11-17T18:04:33.576Z,2.05
2022-11-17T18:07:20.999Z,2.03
2022-11-17T18:10:09.971Z,1.80
2022-11-17T18:12:57.166Z,2.30
2022-11-17T18:15:44.504Z,2.13
2022-11-17T18:18:32.223Z,1.83
2022-11-17T18:21:20.705Z,1.90
2022-11-17T18:24:08.040Z,1.98
2022-11-17T18:26:56.553Z,2.40
2022-11-17T18:29:43.916Z,1.85
2022-11-17T18:32:31.187Z,2.88
2022-11-17T18:35:18.634Z,2.20
2022-11-17T18:38:05.866Z,2.20
2022-11-17T18:40:58.298Z,1.92
2022-11-17T18:43:48.198Z,2.67
2022-11-17T18:46:35.668Z,2.35
2022-11-17T18:49:22.708Z,2.15
2022-11-17T18:52:10.202Z,2.03
2022-11-17T18:54:57.586Z,2.10
2022-11-17T18:57:45.206Z,2.30
2022-11-17T19:00:33.924Z,2.33
2022-11-17T19:03:21.335Z,1.95
2022-11-17T19:06:09.507Z,1.85
2022-11-17T19:08:58.577Z,2.20
2022-11-17T19:11:45.624Z,2.42
2022-11-17T19:14:33.167Z,2.13
2022-11-17T19:17:22.072Z,1.98
2022-11-17T19:20:11.216Z,1.98
2022-11-17T19:22:58.271Z,2.35
2022-11-17T19:25:47.010Z,2.38
2022-11-17T19:28:34.134Z,2.15
2022-11-17T19:31:21.861Z,2.90
2022-11-17T19:34:10.207Z,2.30
2022-11-17T19:36:57.736Z,2.08
2022-11-17T19:39:45.020Z,2.35
2022-11-17T19:42:32.299Z,2.33
2022-11-17T19:45:20.950Z,1.98
2022-11-17T19:48:08.313Z,2.40
2022-11-17T19:50:57.086Z,2.60
2022-11-17T19:53:44.686Z,2.60
2022-11-17T19:56:32.157Z,2.78
2022-11-17T19:59:20.112Z,2.40
2022-11-17T20:02:07.570Z,2.40
2022-11-17T20:04:54.595Z,2.55
2022-11-17T20:07:43.303Z,2.53
2022-11-17T20:10:32.517Z,2.92
2022-11-17T20:13:19.834Z,2.40
2022-11-17T20:16:11.998Z,2.05
2022-11-17T20:19:00.932Z,2.58
2022-11-17T20:21:48.135Z,2.58
2022-11-17T20:24:36.811Z,2.50
2022-11-17T20:27:24.059Z,2.17
2022-11-17T20:30:15.184Z,2.35
2022-11-17T20:33:02.891Z,2.63
2022-11-17T20:35:50.623Z,2.38
2022-11-17T20:38:37.894Z,2.25
2022-11-17T20:41:26.559Z,2.78
2022-11-17T20:44:24.862Z,2.30
2022-11-17T20:47:12.244Z,2.47
2022-11-17T20:49:59.268Z,2.40
2022-11-17T20:52:46.360Z,2.25
2022-11-17T20:55:33.886Z,2.65
2022-11-17T20:58:22.676Z,2.38
2022-11-17T21:01:10.419Z,2.00
2022-11-17T21:03:57.920Z,2.22
2022-11-17T21:06:45.236Z,2.40
2022-11-17T21:09:32.591Z,2.83
2022-11-17T21:12:19.855Z,2.72
2022-11-17T21:15:08.997Z,2.10
2022-11-17T21:18:13.550Z,2.05
2022-11-17T21:21:01.588Z,2.35
2022-11-17T21:23:48.702Z,2.30
2022-11-17T21:26:36.236Z,2.10
2022-11-17T21:29:23.657Z,2.10
2022-11-17T21:32:12.315Z,1.80
2022-11-17T21:35:01.254Z,2.08
2022-11-17T21:37:48.291Z,2.10
2022-11-17T21:40:35.507Z,1.88
2022-11-17T21:43:22.976Z,2.20
2022-11-17T21:46:11.023Z,2.17
2022-11-17T21:49:00.635Z,1.70
2022-11-17T21:51:47.911Z,2.10
2022-11-17T21:54:35.150Z,1.75
2022-11-17T21:57:22.484Z,2.10
2022-11-17T22:00:10.310Z,1.80
2022-11-17T22:02:57.627Z,2.00
2022-11-17T22:05:46.308Z,2.50
2022-11-17T22:08:35.416Z,2.35
2022-11-17T22:11:35.440Z,1.92
2022-11-17T22:14:23.048Z,2.28
2022-11-17T22:17:10.582Z,2.20
2022-11-17T22:19:58.023Z,2.45
2022-11-17T22:22:47.696Z,2.63
2022-11-17T22:25:50.077Z,2.75
2022-11-17T22:28:37.216Z,2.78
2022-11-17T22:31:24.881Z,2.88
2022-11-17T22:34:11.808Z,3.03
2022-11-17T22:36:59.111Z,3.08
2022-11-17T22:39:47.892Z,3.00
2022-11-17T22:42:35.279Z,3.83
2022-11-17T22:45:22.589Z,3.47
2022-11-17T22:48:09.887Z,3.45
2022-11-17T22:50:58.504Z,3.13
2022-11-17T22:53:45.795Z,2.75
2022-11-17T22:56:34.635Z,3.30
2022-11-17T22:59:23.647Z,3.28
2022-11-17T23:02:11.135Z,3.63
2022-11-17T23:04:58.484Z,3.55
2022-11-17T23:07:45.743Z,3.60
2022-11-17T23:10:32.902Z,3.85
2022-11-17T23:13:21.787Z,3.45
2022-11-17T23:16:09.359Z,3.53
2022-11-17T23:18:56.997Z,3.47
2022-11-17T23:21:44.337Z,3.53
2022-11-17T23:24:31.739Z,3.05
2022-11-17T23:27:19.287Z,3.58
2022-11-17T23:30:08.535Z,3.28
2022-11-17T23:32:56.271Z,3.13
2022-11-17T23:35:43.255Z,3.58
2022-11-17T23:38:31.629Z,3.30
2022-11-17T23:41:19.388Z,3.15
2022-11-17T23:44:06.831Z,3.50
2022-11-17T23:46:55.560Z,3.58
2022-11-17T23:49:42.908Z,3.28
2022-11-17T23:52:30.220Z,3.38
2022-11-17T23:55:17.604Z,3.03
2022-11-17T23:58:05.983Z,3.20
